sensor_id;sensor_type;location;lat;lon;timestamp;pressure;altitude;pressure_sealevel;temperature;humidity
40570;BME280;26270;34.428;-119.710;2022-09-09T00:01:22;100128.33;;;32.66;38.22
40570;BME280;26270;34.428;-119.710;2022-09-09T00:03:57;100128.59;;;32.77;36.76
40570;BME280;26270;34.428;-119.710;2022-09-09T00:06:31;100127.96;;;33.23;35.15
40570;BME280;26270;34.428;-119.710;2022-09-09T00:09:04;100128.75;;;32.73;36.40
40570;BME280;26270;34.428;-119.710;2022-09-09T00:11:40;100118.51;;;33.09;35.85
40570;BME280;26270;34.428;-119.710;2022-09-09T00:14:17;100101.24;;;32.91;35.81
40570;BME280;26270;34.428;-119.710;2022-09-09T00:16:51;100086.73;;;33.09;33.94
40570;BME280;26270;34.428;-119.710;2022-09-09T00:19:24;100088.47;;;33.12;33.84
40570;BME280;26270;34.428;-119.710;2022-09-09T00:22:03;100097.54;;;33.05;33.88
40570;BME280;26270;34.428;-119.710;2022-09-09T00:24:40;100095.16;;;33.23;33.74
40570;BME280;26270;34.428;-119.710;2022-09-09T00:27:17;100089.94;;;33.29;33.59
40570;BME280;26270;34.428;-119.710;2022-09-09T00:29:53;100089.19;;;33.07;33.23
40570;BME280;26270;34.428;-119.710;2022-09-09T00:32:24;100074.39;;;32.83;33.07
40570;BME280;26270;34.428;-119.710;2022-09-09T00:35:00;100067.53;;;32.94;32.89
40570;BME280;26270;34.428;-119.710;2022-09-09T00:37:30;100066.94;;;33.10;32.73
40570;BME280;26270;34.428;-119.710;2022-09-09T00:40:03;100065.72;;;33.16;32.84
40570;BME280;26270;34.428;-119.710;2022-09-09T00:42:40;100064.59;;;33.18;32.50
40570;BME280;26270;34.428;-119.710;2022-09-09T00:45:25;100059.50;;;33.33;32.76
40570;BME280;26270;34.428;-119.710;2022-09-09T00:47:59;100058.00;;;33.23;32.78
40570;BME280;26270;34.428;-119.710;2022-09-09T00:50:43;100056.78;;;33.25;33.65
40570;BME280;26270;34.428;-119.710;2022-09-09T00:53:26;100061.22;;;32.96;34.49
40570;BME280;26270;34.428;-119.710;2022-09-09T00:56:08;100062.63;;;32.78;35.28
40570;BME280;26270;34.428;-119.710;2022-09-09T00:58:37;100063.36;;;32.92;34.90
40570;BME280;26270;34.428;-119.710;2022-09-09T01:01:08;100059.33;;;32.64;34.95
40570;BME280;26270;34.428;-119.710;2022-09-09T01:03:40;100055.68;;;32.55;35.39
40570;BME280;26270;34.428;-119.710;2022-09-09T01:06:16;100055.56;;;32.40;34.99
40570;BME280;26270;34.428;-119.710;2022-09-09T01:09:04;100056.64;;;32.42;35.17
40570;BME280;26270;34.428;-119.710;2022-09-09T01:11:42;100048.49;;;32.40;35.05
40570;BME280;26270;34.428;-119.710;2022-09-09T01:14:29;100043.72;;;32.38;34.90
40570;BME280;26270;34.428;-119.710;2022-09-09T01:17:03;100038.37;;;32.29;35.20
40570;BME280;26270;34.428;-119.710;2022-09-09T01:19:49;100035.30;;;32.14;35.62
40570;BME280;26270;34.428;-119.710;2022-09-09T01:22:29;100032.74;;;32.22;35.56
40570;BME280;26270;34.428;-119.710;2022-09-09T01:25:19;100030.44;;;32.02;35.74
40570;BME280;26270;34.428;-119.710;2022-09-09T01:27:51;100030.94;;;31.95;36.18
40570;BME280;26270;34.428;-119.710;2022-09-09T01:30:21;100030.12;;;31.98;36.59
40570;BME280;26270;34.428;-119.710;2022-09-09T01:32:53;100032.07;;;31.80;36.74
40570;BME280;26270;34.428;-119.710;2022-09-09T01:35:31;100035.37;;;31.79;36.86
40570;BME280;26270;34.428;-119.710;2022-09-09T01:38:00;100030.42;;;31.83;36.96
40570;BME280;26270;34.428;-119.710;2022-09-09T01:40:29;100030.46;;;31.49;37.49
40570;BME280;26270;34.428;-119.710;2022-09-09T01:42:58;100028.34;;;31.47;37.71
40570;BME280;26270;34.428;-119.710;2022-09-09T01:45:26;100027.83;;;31.40;37.92
40570;BME280;26270;34.428;-119.710;2022-09-09T01:47:55;100029.79;;;31.35;37.86
40570;BME280;26270;34.428;-119.710;2022-09-09T01:50:23;100031.04;;;31.35;37.96
40570;BME280;26270;34.428;-119.710;2022-09-09T01:52:54;100027.53;;;31.34;37.94
40570;BME280;26270;34.428;-119.710;2022-09-09T01:55:30;100026.78;;;31.24;38.09
40570;BME280;26270;34.428;-119.710;2022-09-09T01:58:11;100025.75;;;31.07;38.41
40570;BME280;26270;34.428;-119.710;2022-09-09T02:00:47;100019.10;;;31.18;38.31
40570;BME280;26270;34.428;-119.710;2022-09-09T02:03:23;100013.61;;;31.14;38.67
40570;BME280;26270;34.428;-119.710;2022-09-09T02:05:58;100005.54;;;30.97;38.92
40570;BME280;26270;34.428;-119.710;2022-09-09T02:08:35;100003.91;;;31.06;38.76
40570;BME280;26270;34.428;-119.710;2022-09-09T02:11:13;99996.95;;;30.91;39.05
40570;BME280;26270;34.428;-119.710;2022-09-09T02:13:44;99993.28;;;30.90;38.94
40570;BME280;26270;34.428;-119.710;2022-09-09T02:16:17;99988.92;;;30.85;39.03
40570;BME280;26270;34.428;-119.710;2022-09-09T02:18:50;99987.58;;;30.69;39.23
40570;BME280;26270;34.428;-119.710;2022-09-09T02:21:21;99984.40;;;30.69;39.11
40570;BME280;26270;34.428;-119.710;2022-09-09T02:23:51;99977.43;;;30.64;39.03
40570;BME280;26270;34.428;-119.710;2022-09-09T02:26:22;99971.09;;;30.65;38.89
40570;BME280;26270;34.428;-119.710;2022-09-09T02:28:54;99962.91;;;30.77;38.24
40570;BME280;26270;34.428;-119.710;2022-09-09T02:31:25;99958.55;;;30.48;38.87
40570;BME280;26270;34.428;-119.710;2022-09-09T02:33:56;99954.23;;;30.48;38.64
40570;BME280;26270;34.428;-119.710;2022-09-09T02:36:28;99959.24;;;30.09;39.85
40570;BME280;26270;34.428;-119.710;2022-09-09T02:38:58;99949.20;;;30.05;40.28
40570;BME280;26270;34.428;-119.710;2022-09-09T02:41:30;99946.08;;;29.98;40.69
40570;BME280;26270;34.428;-119.710;2022-09-09T02:43:59;99936.66;;;30.11;40.70
40570;BME280;26270;34.428;-119.710;2022-09-09T02:46:37;99933.84;;;29.93;41.17
40570;BME280;26270;34.428;-119.710;2022-09-09T02:49:11;99928.80;;;30.21;41.36
40570;BME280;26270;34.428;-119.710;2022-09-09T02:51:50;99926.10;;;30.22;41.06
40570;BME280;26270;34.428;-119.710;2022-09-09T02:54:28;99926.94;;;30.12;41.02
40570;BME280;26270;34.428;-119.710;2022-09-09T02:57:01;99923.28;;;30.05;40.69
40570;BME280;26270;34.428;-119.710;2022-09-09T02:59:31;99922.25;;;30.02;40.55
40570;BME280;26270;34.428;-119.710;2022-09-09T03:02:00;99923.11;;;29.79;40.74
40570;BME280;26270;34.428;-119.710;2022-09-09T03:04:27;99927.04;;;29.86;40.70
40570;BME280;26270;34.428;-119.710;2022-09-09T03:06:55;99932.92;;;29.85;40.66
40570;BME280;26270;34.428;-119.710;2022-09-09T03:09:23;99933.66;;;29.75;40.97
40570;BME280;26270;34.428;-119.710;2022-09-09T03:11:52;99929.29;;;29.80;41.20
40570;BME280;26270;34.428;-119.710;2022-09-09T03:14:21;99923.11;;;29.74;41.18
40570;BME280;26270;34.428;-119.710;2022-09-09T03:16:49;99920.25;;;29.88;41.29
40570;BME280;26270;34.428;-119.710;2022-09-09T03:19:17;99915.32;;;29.59;41.56
40570;BME280;26270;34.428;-119.710;2022-09-09T03:21:46;99918.00;;;29.40;41.96
40570;BME280;26270;34.428;-119.710;2022-09-09T03:24:14;99917.79;;;29.30;42.17
40570;BME280;26270;34.428;-119.710;2022-09-09T03:26:43;99914.77;;;29.30;42.43
40570;BME280;26270;34.428;-119.710;2022-09-09T03:29:12;99911.89;;;29.27;42.75
40570;BME280;26270;34.428;-119.710;2022-09-09T03:31:40;99909.63;;;29.34;42.61
40570;BME280;26270;34.428;-119.710;2022-09-09T03:34:08;99914.19;;;29.20;43.76
40570;BME280;26270;34.428;-119.710;2022-09-09T03:36:36;99918.05;;;29.13;44.93
40570;BME280;26270;34.428;-119.710;2022-09-09T03:39:05;99923.61;;;29.32;45.04
40570;BME280;26270;34.428;-119.710;2022-09-09T03:41:33;99924.59;;;29.03;45.99
40570;BME280;26270;34.428;-119.710;2022-09-09T03:44:01;99925.19;;;29.11;45.96
40570;BME280;26270;34.428;-119.710;2022-09-09T03:46:29;99935.55;;;29.03;46.08
40570;BME280;26270;34.428;-119.710;2022-09-09T03:48:57;99938.85;;;28.48;47.58
40570;BME280;26270;34.428;-119.710;2022-09-09T03:51:26;99937.30;;;28.83;47.17
40570;BME280;26270;34.428;-119.710;2022-09-09T03:53:54;99935.21;;;28.78;47.03
40570;BME280;26270;34.428;-119.710;2022-09-09T03:56:22;99933.88;;;28.97;47.24
40570;BME280;26270;34.428;-119.710;2022-09-09T03:58:50;99929.24;;;28.87;47.28
40570;BME280;26270;34.428;-119.710;2022-09-09T04:03:20;99925.18;;;28.78;47.82
40570;BME280;26270;34.428;-119.710;2022-09-09T04:05:50;99928.66;;;28.66;48.02
40570;BME280;26270;34.428;-119.710;2022-09-09T04:08:19;99925.34;;;28.62;47.98
40570;BME280;26270;34.428;-119.710;2022-09-09T04:10:48;99922.47;;;28.72;48.28
40570;BME280;26270;34.428;-119.710;2022-09-09T04:13:17;99918.28;;;28.69;48.46
40570;BME280;26270;34.428;-119.710;2022-09-09T04:15:51;99915.53;;;28.50;48.82
40570;BME280;26270;34.428;-119.710;2022-09-09T04:18:20;99910.44;;;28.61;48.89
40570;BME280;26270;34.428;-119.710;2022-09-09T04:20:48;99905.84;;;28.52;48.81
40570;BME280;26270;34.428;-119.710;2022-09-09T04:23:16;99909.47;;;28.58;48.74
40570;BME280;26270;34.428;-119.710;2022-09-09T04:25:46;99906.09;;;28.55;49.14
40570;BME280;26270;34.428;-119.710;2022-09-09T04:28:15;99905.52;;;28.51;49.35
40570;BME280;26270;34.428;-119.710;2022-09-09T04:30:45;99892.60;;;28.02;50.61
40570;BME280;26270;34.428;-119.710;2022-09-09T04:33:14;99884.03;;;28.17;49.69
40570;BME280;26270;34.428;-119.710;2022-09-09T04:35:45;99879.88;;;28.54;48.71
40570;BME280;26270;34.428;-119.710;2022-09-09T04:38:14;99871.83;;;28.67;48.09
40570;BME280;26270;34.428;-119.710;2022-09-09T04:40:43;99862.44;;;28.26;48.65
40570;BME280;26270;34.428;-119.710;2022-09-09T04:43:12;99854.04;;;28.53;47.65
40570;BME280;26270;34.428;-119.710;2022-09-09T04:45:40;99850.55;;;28.27;47.45
40570;BME280;26270;34.428;-119.710;2022-09-09T04:48:09;99845.52;;;28.48;47.38
40570;BME280;26270;34.428;-119.710;2022-09-09T04:50:37;99841.80;;;28.50;46.90
40570;BME280;26270;34.428;-119.710;2022-09-09T04:53:06;99837.28;;;28.63;46.90
40570;BME280;26270;34.428;-119.710;2022-09-09T04:55:35;99831.44;;;28.59;46.26
40570;BME280;26270;34.428;-119.710;2022-09-09T04:58:04;99827.71;;;28.75;45.98
40570;BME280;26270;34.428;-119.710;2022-09-09T05:00:34;99828.70;;;28.69;46.20
40570;BME280;26270;34.428;-119.710;2022-09-09T05:03:03;99830.85;;;28.55;46.77
40570;BME280;26270;34.428;-119.710;2022-09-09T05:05:31;99829.35;;;28.26;47.29
40570;BME280;26270;34.428;-119.710;2022-09-09T05:08:02;99825.47;;;28.25;48.42
40570;BME280;26270;34.428;-119.710;2022-09-09T05:10:30;99829.76;;;28.46;48.80
40570;BME280;26270;34.428;-119.710;2022-09-09T05:12:59;99825.21;;;28.16;49.55
40570;BME280;26270;34.428;-119.710;2022-09-09T05:15:27;99829.55;;;28.27;49.87
40570;BME280;26270;34.428;-119.710;2022-09-09T05:17:58;99835.20;;;28.28;50.21
40570;BME280;26270;34.428;-119.710;2022-09-09T05:20:27;99840.51;;;27.93;50.81
40570;BME280;26270;34.428;-119.710;2022-09-09T05:22:56;99838.84;;;28.04;50.95
40570;BME280;26270;34.428;-119.710;2022-09-09T05:25:24;99835.35;;;27.89;51.92
40570;BME280;26270;34.428;-119.710;2022-09-09T05:27:52;99831.31;;;27.82;52.57
40570;BME280;26270;34.428;-119.710;2022-09-09T05:30:20;99820.81;;;27.63;53.13
40570;BME280;26270;34.428;-119.710;2022-09-09T05:32:48;99817.55;;;27.52;53.49
40570;BME280;26270;34.428;-119.710;2022-09-09T05:35:16;99812.85;;;27.53;54.10
40570;BME280;26270;34.428;-119.710;2022-09-09T05:37:45;99803.26;;;27.42;54.24
40570;BME280;26270;34.428;-119.710;2022-09-09T05:40:13;99807.25;;;27.42;54.46
40570;BME280;26270;34.428;-119.710;2022-09-09T05:42:42;99810.43;;;27.30;54.86
40570;BME280;26270;34.428;-119.710;2022-09-09T05:45:11;99800.85;;;27.11;55.06
40570;BME280;26270;34.428;-119.710;2022-09-09T05:47:38;99808.97;;;27.22;55.02
40570;BME280;26270;34.428;-119.710;2022-09-09T05:50:08;99796.37;;;26.93;55.19
40570;BME280;26270;34.428;-119.710;2022-09-09T05:52:36;99800.02;;;27.04;55.11
40570;BME280;26270;34.428;-119.710;2022-09-09T05:55:05;99794.59;;;27.06;55.55
40570;BME280;26270;34.428;-119.710;2022-09-09T05:57:33;99794.02;;;26.95;55.78
40570;BME280;26270;34.428;-119.710;2022-09-09T06:00:02;99790.30;;;26.95;55.49
40570;BME280;26270;34.428;-119.710;2022-09-09T06:02:30;99783.62;;;26.96;55.81
40570;BME280;26270;34.428;-119.710;2022-09-09T06:04:58;99773.31;;;27.22;55.59
40570;BME280;26270;34.428;-119.710;2022-09-09T06:07:25;99762.35;;;26.93;55.58
40570;BME280;26270;34.428;-119.710;2022-09-09T06:09:54;99759.99;;;26.32;57.53
40570;BME280;26270;34.428;-119.710;2022-09-09T06:12:22;99756.91;;;26.71;56.78
40570;BME280;26270;34.428;-119.710;2022-09-09T06:14:49;99747.96;;;26.73;56.19
40570;BME280;26270;34.428;-119.710;2022-09-09T06:17:18;99751.45;;;26.31;57.70
40570;BME280;26270;34.428;-119.710;2022-09-09T06:19:46;99737.05;;;26.67;56.29
40570;BME280;26270;34.428;-119.710;2022-09-09T06:22:14;99733.81;;;26.62;56.88
40570;BME280;26270;34.428;-119.710;2022-09-09T06:24:43;99735.62;;;26.44;57.24
40570;BME280;26270;34.428;-119.710;2022-09-09T06:27:11;99734.59;;;26.59;57.23
40570;BME280;26270;34.428;-119.710;2022-09-09T06:29:38;99741.04;;;26.36;57.59
40570;BME280;26270;34.428;-119.710;2022-09-09T06:32:06;99737.24;;;26.66;56.83
40570;BME280;26270;34.428;-119.710;2022-09-09T06:34:35;99732.63;;;26.60;56.68
40570;BME280;26270;34.428;-119.710;2022-09-09T06:37:03;99738.28;;;26.13;58.23
40570;BME280;26270;34.428;-119.710;2022-09-09T06:39:31;99727.78;;;26.36;57.56
40570;BME280;26270;34.428;-119.710;2022-09-09T06:42:00;99717.88;;;26.58;57.26
40570;BME280;26270;34.428;-119.710;2022-09-09T06:44:28;99719.98;;;25.74;59.75
40570;BME280;26270;34.428;-119.710;2022-09-09T06:46:56;99719.93;;;25.97;58.92
40570;BME280;26270;34.428;-119.710;2022-09-09T06:49:24;99703.68;;;26.27;57.98
40570;BME280;26270;34.428;-119.710;2022-09-09T06:51:52;99698.39;;;26.46;58.04
40570;BME280;26270;34.428;-119.710;2022-09-09T06:54:20;99698.55;;;26.51;57.74
40570;BME280;26270;34.428;-119.710;2022-09-09T06:56:48;99691.86;;;26.47;57.67
40570;BME280;26270;34.428;-119.710;2022-09-09T06:59:16;99681.90;;;26.48;57.99
40570;BME280;26270;34.428;-119.710;2022-09-09T07:01:44;99678.41;;;26.47;57.36
40570;BME280;26270;34.428;-119.710;2022-09-09T07:04:12;99673.56;;;26.23;58.07
40570;BME280;26270;34.428;-119.710;2022-09-09T07:06:43;99668.80;;;26.43;57.48
40570;BME280;26270;34.428;-119.710;2022-09-09T07:09:14;99664.31;;;26.45;57.36
40570;BME280;26270;34.428;-119.710;2022-09-09T07:11:44;99666.41;;;26.18;58.24
40570;BME280;26270;34.428;-119.710;2022-09-09T07:14:13;99653.76;;;26.08;58.59
40570;BME280;26270;34.428;-119.710;2022-09-09T07:16:41;99648.96;;;26.05;58.62
40570;BME280;26270;34.428;-119.710;2022-09-09T07:19:09;99650.57;;;25.94;58.66
40570;BME280;26270;34.428;-119.710;2022-09-09T07:21:38;99644.77;;;26.13;57.95
40570;BME280;26270;34.428;-119.710;2022-09-09T07:24:06;99639.01;;;26.16;58.25
40570;BME280;26270;34.428;-119.710;2022-09-09T07:26:34;99631.58;;;26.12;58.06
40570;BME280;26270;34.428;-119.710;2022-09-09T07:29:03;99616.83;;;26.21;57.65
40570;BME280;26270;34.428;-119.710;2022-09-09T07:31:33;99615.44;;;26.35;57.41
40570;BME280;26270;34.428;-119.710;2022-09-09T07:34:02;99607.30;;;26.49;57.61
40570;BME280;26270;34.428;-119.710;2022-09-09T07:36:32;99613.00;;;26.28;57.99
40570;BME280;26270;34.428;-119.710;2022-09-09T07:39:02;99616.59;;;26.22;57.77
40570;BME280;26270;34.428;-119.710;2022-09-09T07:41:33;99621.03;;;25.98;58.28
40570;BME280;26270;34.428;-119.710;2022-09-09T07:44:05;99618.45;;;26.08;58.44
40570;BME280;26270;34.428;-119.710;2022-09-09T07:46:35;99603.39;;;26.26;58.02
40570;BME280;26270;34.428;-119.710;2022-09-09T07:49:03;99606.69;;;25.69;59.49
40570;BME280;26270;34.428;-119.710;2022-09-09T07:51:33;99602.26;;;26.00;58.41
40570;BME280;26270;34.428;-119.710;2022-09-09T07:54:04;99603.18;;;26.23;58.10
40570;BME280;26270;34.428;-119.710;2022-09-09T07:56:33;99604.80;;;25.88;59.24
40570;BME280;26270;34.428;-119.710;2022-09-09T07:59:02;99598.56;;;26.07;58.43
40570;BME280;26270;34.428;-119.710;2022-09-09T08:01:33;99593.60;;;26.06;58.92
40570;BME280;26270;34.428;-119.710;2022-09-09T08:04:03;99582.58;;;25.98;58.87
40570;BME280;26270;34.428;-119.710;2022-09-09T08:06:34;99574.44;;;26.14;58.64
40570;BME280;26270;34.428;-119.710;2022-09-09T08:09:04;99577.71;;;26.23;58.60
40570;BME280;26270;34.428;-119.710;2022-09-09T08:11:33;99585.49;;;25.94;58.95
40570;BME280;26270;34.428;-119.710;2022-09-09T08:14:01;99579.03;;;25.98;59.10
40570;BME280;26270;34.428;-119.710;2022-09-09T08:16:31;99585.72;;;26.20;59.03
40570;BME280;26270;34.428;-119.710;2022-09-09T08:19:06;99593.07;;;25.99;59.19
40570;BME280;26270;34.428;-119.710;2022-09-09T08:21:36;99600.55;;;25.87;59.77
40570;BME280;26270;34.428;-119.710;2022-09-09T08:24:06;99603.93;;;25.91;59.61
40570;BME280;26270;34.428;-119.710;2022-09-09T08:26:35;99609.45;;;25.90;59.60
40570;BME280;26270;34.428;-119.710;2022-09-09T08:29:06;99609.45;;;25.83;59.21
40570;BME280;26270;34.428;-119.710;2022-09-09T08:31:36;99604.32;;;25.61;59.20
40570;BME280;26270;34.428;-119.710;2022-09-09T08:34:06;99602.60;;;25.65;59.15
40570;BME280;26270;34.428;-119.710;2022-09-09T08:36:36;99601.08;;;25.37;59.65
40570;BME280;26270;34.428;-119.710;2022-09-09T08:39:06;99597.07;;;25.48;59.59
40570;BME280;26270;34.428;-119.710;2022-09-09T08:41:54;99588.66;;;25.40;59.47
40570;BME280;26270;34.428;-119.710;2022-09-09T08:44:37;99583.87;;;25.51;59.10
40570;BME280;26270;34.428;-119.710;2022-09-09T08:47:13;99591.87;;;25.57;59.02
40570;BME280;26270;34.428;-119.710;2022-09-09T08:49:58;99588.36;;;25.25;59.73
40570;BME280;26270;34.428;-119.710;2022-09-09T08:52:31;99580.30;;;25.04;60.41
40570;BME280;26270;34.428;-119.710;2022-09-09T08:55:18;99572.85;;;25.12;59.98
40570;BME280;26270;34.428;-119.710;2022-09-09T08:57:49;99568.16;;;25.32;59.64
40570;BME280;26270;34.428;-119.710;2022-09-09T09:00:20;99568.56;;;25.37;59.35
40570;BME280;26270;34.428;-119.710;2022-09-09T09:02:57;99559.95;;;25.43;59.69
40570;BME280;26270;34.428;-119.710;2022-09-09T09:05:35;99560.65;;;25.35;59.53
40570;BME280;26270;34.428;-119.710;2022-09-09T09:08:12;99546.38;;;25.43;59.49
40570;BME280;26270;34.428;-119.710;2022-09-09T09:10:47;99538.78;;;25.29;59.66
40570;BME280;26270;34.428;-119.710;2022-09-09T09:13:19;99544.76;;;25.36;60.00
40570;BME280;26270;34.428;-119.710;2022-09-09T09:15:52;99548.00;;;25.32;59.73
40570;BME280;26270;34.428;-119.710;2022-09-09T09:18:21;99547.50;;;24.87;61.31
40570;BME280;26270;34.428;-119.710;2022-09-09T09:20:57;99540.19;;;25.18;60.25
40570;BME280;26270;34.428;-119.710;2022-09-09T09:23:35;99553.85;;;25.12;59.95
40570;BME280;26270;34.428;-119.710;2022-09-09T09:26:09;99549.78;;;25.09;60.14
40570;BME280;26270;34.428;-119.710;2022-09-09T09:28:39;99557.06;;;25.18;60.10
40570;BME280;26270;34.428;-119.710;2022-09-09T09:31:11;99545.83;;;25.01;60.36
40570;BME280;26270;34.428;-119.710;2022-09-09T09:33:46;99556.36;;;24.93;60.49
40570;BME280;26270;34.428;-119.710;2022-09-09T09:36:15;99556.96;;;25.13;60.49
40570;BME280;26270;34.428;-119.710;2022-09-09T09:38:54;99561.67;;;25.10;60.68
40570;BME280;26270;34.428;-119.710;2022-09-09T09:41:31;99567.40;;;24.89;60.97
40570;BME280;26270;34.428;-119.710;2022-09-09T09:44:00;99568.66;;;25.05;60.44
40570;BME280;26270;34.428;-119.710;2022-09-09T09:46:28;99575.16;;;25.07;60.48
40570;BME280;26270;34.428;-119.710;2022-09-09T09:48:58;99574.25;;;25.03;60.11
40570;BME280;26270;34.428;-119.710;2022-09-09T09:51:29;99578.51;;;24.97;60.42
40570;BME280;26270;34.428;-119.710;2022-09-09T09:54:09;99582.14;;;24.99;60.48
40570;BME280;26270;34.428;-119.710;2022-09-09T09:56:41;99582.80;;;25.00;60.45
40570;BME280;26270;34.428;-119.710;2022-09-09T09:59:23;99577.83;;;24.94;59.84
40570;BME280;26270;34.428;-119.710;2022-09-09T10:01:52;99577.71;;;24.94;59.41
40570;BME280;26270;34.428;-119.710;2022-09-09T10:04:22;99575.76;;;25.07;59.09
40570;BME280;26270;34.428;-119.710;2022-09-09T10:06:51;99581.42;;;25.06;59.08
40570;BME280;26270;34.428;-119.710;2022-09-09T10:09:23;99581.36;;;25.05;58.58
40570;BME280;26270;34.428;-119.710;2022-09-09T10:11:59;99588.13;;;25.17;58.35
40570;BME280;26270;34.428;-119.710;2022-09-09T10:14:36;99585.12;;;25.27;58.16
40570;BME280;26270;34.428;-119.710;2022-09-09T10:17:15;99589.17;;;25.12;58.54
40570;BME280;26270;34.428;-119.710;2022-09-09T10:19:55;99588.54;;;25.15;58.07
40570;BME280;26270;34.428;-119.710;2022-09-09T10:22:31;99589.11;;;25.44;57.68
40570;BME280;26270;34.428;-119.710;2022-09-09T10:25:43;99595.25;;;25.23;57.46
40570;BME280;26270;34.428;-119.710;2022-09-09T10:28:29;99595.43;;;25.40;57.31
40570;BME280;26270;34.428;-119.710;2022-09-09T10:31:10;99598.58;;;25.41;57.10
40570;BME280;26270;34.428;-119.710;2022-09-09T10:33:48;99592.49;;;25.20;57.51
40570;BME280;26270;34.428;-119.710;2022-09-09T10:36:21;99591.87;;;25.18;57.18
40570;BME280;26270;34.428;-119.710;2022-09-09T10:38:54;99592.35;;;25.37;56.89
40570;BME280;26270;34.428;-119.710;2022-09-09T10:41:38;99590.83;;;25.23;56.78
40570;BME280;26270;34.428;-119.710;2022-09-09T10:44:21;99590.76;;;25.16;56.87
40570;BME280;26270;34.428;-119.710;2022-09-09T10:47:03;99585.72;;;25.08;57.12
40570;BME280;26270;34.428;-119.710;2022-09-09T10:49:52;99578.57;;;25.36;56.14
40570;BME280;26270;34.428;-119.710;2022-09-09T10:52:30;99573.16;;;25.28;56.29
40570;BME280;26270;34.428;-119.710;2022-09-09T10:55:09;99571.89;;;25.40;55.95
40570;BME280;26270;34.428;-119.710;2022-09-09T10:57:41;99571.07;;;25.43;56.05
40570;BME280;26270;34.428;-119.710;2022-09-09T11:00:17;99570.20;;;25.61;55.69
40570;BME280;26270;34.428;-119.710;2022-09-09T11:02:51;99570.37;;;25.60;55.67
40570;BME280;26270;34.428;-119.710;2022-09-09T11:05:21;99573.33;;;25.47;55.77
40570;BME280;26270;34.428;-119.710;2022-09-09T11:07:56;99572.19;;;25.68;55.44
40570;BME280;26270;34.428;-119.710;2022-09-09T11:10:33;99567.73;;;25.46;55.67
40570;BME280;26270;34.428;-119.710;2022-09-09T11:13:09;99565.74;;;25.32;56.03
40570;BME280;26270;34.428;-119.710;2022-09-09T11:15:42;99562.48;;;25.47;55.66
40570;BME280;26270;34.428;-119.710;2022-09-09T11:18:17;99554.57;;;25.55;55.14
40570;BME280;26270;34.428;-119.710;2022-09-09T11:20:51;99551.71;;;25.36;55.77
40570;BME280;26270;34.428;-119.710;2022-09-09T11:23:26;99544.12;;;25.51;55.45
40570;BME280;26270;34.428;-119.710;2022-09-09T11:25:58;99542.31;;;25.73;55.12
40570;BME280;26270;34.428;-119.710;2022-09-09T11:28:37;99544.08;;;25.50;55.04
40570;BME280;26270;34.428;-119.710;2022-09-09T11:31:21;99547.16;;;25.53;54.98
40570;BME280;26270;34.428;-119.710;2022-09-09T11:34:06;99548.10;;;25.53;55.12
40570;BME280;26270;34.428;-119.710;2022-09-09T11:36:56;99545.22;;;25.59;55.37
40570;BME280;26270;34.428;-119.710;2022-09-09T11:39:53;99545.35;;;25.19;56.23
40570;BME280;26270;34.428;-119.710;2022-09-09T11:42:26;99539.97;;;25.25;56.63
40570;BME280;26270;34.428;-119.710;2022-09-09T11:44:54;99547.12;;;25.17;56.49
40570;BME280;26270;34.428;-119.710;2022-09-09T11:47:24;99549.91;;;25.27;56.52
40570;BME280;26270;34.428;-119.710;2022-09-09T11:49:53;99550.55;;;25.33;56.11
40570;BME280;26270;34.428;-119.710;2022-09-09T11:52:24;99551.66;;;25.50;56.08
40570;BME280;26270;34.428;-119.710;2022-09-09T11:54:55;99551.18;;;25.37;56.52
40570;BME280;26270;34.428;-119.710;2022-09-09T11:57:29;99558.56;;;25.47;56.30
40570;BME280;26270;34.428;-119.710;2022-09-09T11:59:58;99563.46;;;25.31;56.36
40570;BME280;26270;34.428;-119.710;2022-09-09T12:02:29;99564.94;;;25.32;56.59
40570;BME280;26270;34.428;-119.710;2022-09-09T12:05:00;99568.56;;;25.50;56.11
40570;BME280;26270;34.428;-119.710;2022-09-09T12:07:35;99563.43;;;25.40;56.34
40570;BME280;26270;34.428;-119.710;2022-09-09T12:10:20;99566.56;;;25.43;56.01
40570;BME280;26270;34.428;-119.710;2022-09-09T12:12:50;99566.66;;;25.57;55.35
40570;BME280;26270;34.428;-119.710;2022-09-09T12:15:28;99559.71;;;25.62;55.21
40570;BME280;26270;34.428;-119.710;2022-09-09T12:17:58;99560.22;;;25.53;55.88
40570;BME280;26270;34.428;-119.710;2022-09-09T12:20:33;99557.09;;;25.67;55.43
40570;BME280;26270;34.428;-119.710;2022-09-09T12:23:21;99566.05;;;25.57;55.40
40570;BME280;26270;34.428;-119.710;2022-09-09T12:26:00;99570.87;;;25.63;55.22
40570;BME280;26270;34.428;-119.710;2022-09-09T12:28:44;99567.01;;;25.57;55.07
40570;BME280;26270;34.428;-119.710;2022-09-09T12:31:19;99568.13;;;25.86;54.70
40570;BME280;26270;34.428;-119.710;2022-09-09T12:33:52;99565.95;;;25.86;54.37
40570;BME280;26270;34.428;-119.710;2022-09-09T12:36:23;99556.12;;;25.78;54.15
40570;BME280;26270;34.428;-119.710;2022-09-09T12:38:54;99558.12;;;25.76;54.11
40570;BME280;26270;34.428;-119.710;2022-09-09T12:41:26;99572.42;;;25.76;54.59
40570;BME280;26270;34.428;-119.710;2022-09-09T12:44:04;99579.61;;;25.95;54.04
40570;BME280;26270;34.428;-119.710;2022-09-09T12:46:35;99583.20;;;25.77;53.79
40570;BME280;26270;34.428;-119.710;2022-09-09T12:49:04;99588.28;;;25.90;53.71
40570;BME280;26270;34.428;-119.710;2022-09-09T12:51:33;99588.58;;;25.79;54.04
40570;BME280;26270;34.428;-119.710;2022-09-09T12:54:02;99583.81;;;25.83;54.20
40570;BME280;26270;34.428;-119.710;2022-09-09T12:56:32;99595.71;;;25.83;54.50